createdAt,value
2022-12-25T00:00:42.092Z,2.78
2022-12-25T00:03:09.785Z,2.92
2022-12-25T00:05:39.097Z,3.50
2022-12-25T00:08:06.850Z,3.95
2022-12-25T00:10:35.006Z,4.70
2022-12-25T00:13:04.221Z,3.58
2022-12-25T00:15:30.841Z,3.70
2022-12-25T00:17:57.461Z,3.85
2022-12-25T00:20:24.078Z,4.63
2022-12-25T00:22:50.660Z,3.97
2022-12-25T00:25:17.385Z,3.85
2022-12-25T00:27:43.992Z,4.65
2022-12-25T00:30:10.972Z,3.97
2022-12-25T00:32:37.804Z,3.03
2022-12-25T00:35:05.534Z,3.95
2022-12-25T00:37:32.155Z,3.78
2022-12-25T00:39:59.171Z,3.47
2022-12-25T00:42:27.026Z,4.53
2022-12-25T00:44:53.663Z,5.22
2022-12-25T00:47:20.382Z,3.63
2022-12-25T00:49:47.075Z,4.68
2022-12-25T00:52:13.787Z,2.85
2022-12-25T00:54:40.401Z,3.22
2022-12-25T00:57:06.975Z,4.57
2022-12-25T00:59:34.518Z,4.72
2022-12-25T01:02:22.058Z,3.75
2022-12-25T01:04:50.239Z,4.20
2022-12-25T01:07:17.552Z,3.30
2022-12-25T01:10:03.822Z,3.22
2022-12-25T01:12:32.242Z,4.03
2022-12-25T01:14:59.002Z,5.38
2022-12-25T01:17:25.722Z,6.63
2022-12-25T01:19:52.319Z,3.70
2022-12-25T01:22:19.082Z,2.80
2022-12-25T01:24:45.921Z,4.95
2022-12-25T01:27:12.749Z,6.43
2022-12-25T01:29:39.436Z,3.95
2022-12-25T01:32:06.779Z,3.78
2022-12-25T01:34:33.793Z,4.00
2022-12-25T01:37:00.463Z,4.38
2022-12-25T01:39:27.393Z,4.18
2022-12-25T01:41:54.085Z,3.88
2022-12-25T01:44:35.745Z,4.90
2022-12-25T01:47:06.740Z,4.80
2022-12-25T01:49:39.084Z,4.63
2022-12-25T01:54:43.453Z,4.80
2022-12-25T01:57:16.586Z,6.03
2022-12-25T01:59:43.815Z,4.03
2022-12-25T02:02:11.325Z,7.47
2022-12-25T02:04:45.839Z,8.18
2022-12-25T02:07:18.166Z,4.68
2022-12-25T02:09:45.909Z,5.45
2022-12-25T02:12:20.000Z,5.53
2022-12-25T02:14:49.505Z,3.47
2022-12-25T02:17:37.557Z,6.22
2022-12-25T02:20:23.054Z,6.45
2022-12-25T02:23:32.372Z,7.05
2022-12-25T02:26:05.038Z,5.60
2022-12-25T02:28:37.309Z,7.18
2022-12-25T02:31:15.045Z,5.95
2022-12-25T02:34:15.760Z,5.88
2022-12-25T02:37:02.600Z,5.35
2022-12-25T02:40:11.352Z,2.47
2022-12-25T02:43:16.939Z,5.05
2022-12-25T02:46:13.115Z,6.50
2022-12-25T02:49:09.361Z,4.95
2022-12-25T02:51:59.604Z,5.00
2022-12-25T02:54:53.330Z,5.88
2022-12-25T02:57:41.555Z,6.00
2022-12-25T03:00:28.880Z,5.72
2022-12-25T03:03:16.273Z,6.10
2022-12-25T03:06:03.142Z,4.97
2022-12-25T03:08:37.062Z,4.15
2022-12-25T03:11:25.516Z,8.05
2022-12-25T03:13:55.785Z,5.95
2022-12-25T03:16:54.999Z,6.68
2022-12-25T03:19:42.884Z,3.75
2022-12-25T03:22:54.102Z,9.25
2022-12-25T03:25:39.250Z,8.82
2022-12-25T03:28:06.501Z,7.18
2022-12-25T03:31:13.986Z,7.10
2022-12-25T03:34:17.553Z,6.22
2022-12-25T03:37:05.169Z,8.18
2022-12-25T03:39:55.022Z,6.03
2022-12-25T03:42:53.947Z,8.55
2022-12-25T03:45:45.172Z,15.93
2022-12-25T03:51:25.414Z,9.77
2022-12-25T03:54:16.303Z,8.43
2022-12-25T03:57:02.626Z,7.38
2022-12-25T03:59:47.473Z,11.63
2022-12-25T04:02:32.864Z,11.60
2022-12-25T04:05:18.099Z,9.68
2022-12-25T04:08:03.494Z,10.55
2022-12-25T04:10:49.036Z,10.35
2022-12-25T04:13:34.433Z,8.98
2022-12-25T04:16:19.649Z,8.27
2022-12-25T04:19:04.758Z,6.45
2022-12-25T04:21:49.812Z,12.73
2022-12-25T04:24:35.238Z,6.78
2022-12-25T04:27:20.433Z,12.23
2022-12-25T04:30:05.825Z,11.23
2022-12-25T04:32:50.975Z,8.27
2022-12-25T04:35:36.226Z,13.65
2022-12-25T04:38:02.834Z,7.63
2022-12-25T04:40:29.444Z,8.55
2022-12-25T04:42:56.054Z,10.43
2022-12-25T04:45:22.665Z,9.88
2022-12-25T04:47:49.339Z,6.68
2022-12-25T04:50:16.001Z,6.63
2022-12-25T04:52:43.133Z,9.45
2022-12-25T04:55:11.100Z,12.07
2022-12-25T04:57:38.121Z,9.45
2022-12-25T05:00:06.148Z,7.10
2022-12-25T05:02:33.149Z,10.20
2022-12-25T05:04:59.973Z,8.30
2022-12-25T05:07:26.571Z,9.65
2022-12-25T05:09:53.199Z,8.45
2022-12-25T05:12:19.882Z,10.00
2022-12-25T05:14:46.731Z,9.52
2022-12-25T05:17:13.499Z,9.27
2022-12-25T05:19:40.099Z,10.43
2022-12-25T05:22:06.724Z,9.90
2022-12-25T05:24:33.462Z,7.32
2022-12-25T05:27:00.151Z,9.95
2022-12-25T05:29:26.866Z,9.70
2022-12-25T05:31:53.440Z,8.18
2022-12-25T05:34:20.077Z,8.50
2022-12-25T05:36:46.656Z,7.55
2022-12-25T05:39:13.348Z,4.95
2022-12-25T05:41:40.684Z,8.75
2022-12-25T05:44:07.371Z,7.93
2022-12-25T05:46:34.061Z,6.50
2022-12-25T05:49:00.751Z,8.02
2022-12-25T05:51:27.386Z,7.70
2022-12-25T05:53:53.992Z,7.43
2022-12-25T05:56:20.685Z,8.20
2022-12-25T05:58:47.274Z,8.05
2022-12-25T06:01:16.745Z,6.35
2022-12-25T06:03:43.528Z,6.32
2022-12-25T06:06:10.880Z,7.20
2022-12-25T06:08:37.735Z,5.85
2022-12-25T06:11:06.427Z,8.23
2022-12-25T06:13:34.217Z,7.25
2022-12-25T06:16:04.883Z,6.60
2022-12-25T06:18:31.684Z,6.20
2022-12-25T06:20:58.323Z,4.97
2022-12-25T06:23:24.957Z,6.60
2022-12-25T06:25:51.718Z,7.88
2022-12-25T06:28:18.384Z,6.65
2022-12-25T06:30:46.199Z,8.00
2022-12-25T06:33:12.914Z,7.57
2022-12-25T06:35:40.315Z,6.75
2022-12-25T06:38:06.936Z,6.63
2022-12-25T06:40:35.015Z,6.90
2022-12-25T06:43:01.807Z,4.90
2022-12-25T06:45:28.494Z,6.28
2022-12-25T06:47:55.222Z,6.70
2022-12-25T06:50:21.845Z,8.05
2022-12-25T06:52:48.447Z,6.55
2022-12-25T06:55:15.156Z,7.35
2022-12-25T06:57:41.753Z,7.22
2022-12-25T07:00:10.694Z,6.45
2022-12-25T07:02:38.728Z,7.93
2022-12-25T07:05:06.004Z,6.30
2022-12-25T07:07:32.924Z,6.60
2022-12-25T07:09:59.686Z,6.38
2022-12-25T07:12:26.382Z,7.60
2022-12-25T07:14:55.409Z,8.73
2022-12-25T07:17:23.960Z,6.05
2022-12-25T07:19:50.795Z,6.25
2022-12-25T07:22:17.397Z,6.55
2022-12-25T07:24:44.346Z,5.32
2022-12-25T07:27:11.035Z,5.63
2022-12-25T07:29:37.675Z,7.43
2022-12-25T07:32:04.659Z,6.45
2022-12-25T07:34:31.345Z,7.05
2022-12-25T07:36:57.961Z,4.88
2022-12-25T07:39:24.614Z,8.07
2022-12-25T07:41:51.486Z,6.43
2022-12-25T07:44:18.378Z,7.25
2022-12-25T07:46:45.505Z,6.95
2022-12-25T07:49:12.665Z,6.13
2022-12-25T07:51:39.346Z,6.32
2022-12-25T07:54:06.058Z,8.35
2022-12-25T07:56:32.661Z,6.10
2022-12-25T07:58:59.315Z,7.45
2022-12-25T08:01:27.789Z,3.95
2022-12-25T08:03:57.113Z,6.10
2022-12-25T08:06:26.902Z,7.38
2022-12-25T08:08:53.617Z,6.72
2022-12-25T08:11:20.243Z,6.90
2022-12-25T08:13:46.883Z,5.38
2022-12-25T08:16:13.777Z,8.40
2022-12-25T08:18:40.448Z,5.88
2022-12-25T08:21:10.308Z,7.30
2022-12-25T08:23:39.478Z,7.72
2022-12-25T08:26:08.552Z,9.88
2022-12-25T08:28:36.089Z,5.35
2022-12-25T08:31:19.317Z,7.95
2022-12-25T08:33:46.721Z,7.63
2022-12-25T08:36:13.841Z,5.53
2022-12-25T08:38:41.276Z,5.43
2022-12-25T08:41:08.829Z,4.95
2022-12-25T08:43:35.969Z,6.60
2022-12-25T08:46:03.184Z,7.00
2022-12-25T08:48:30.093Z,7.47
2022-12-25T08:50:57.146Z,8.40
2022-12-25T08:53:24.187Z,7.20
2022-12-25T08:55:57.793Z,7.32
2022-12-25T08:58:24.553Z,6.40
2022-12-25T09:00:51.204Z,5.68
2022-12-25T09:03:17.848Z,7.38
2022-12-25T09:05:44.512Z,6.63
2022-12-25T09:08:11.077Z,5.88
2022-12-25T09:10:37.724Z,7.63
2022-12-25T09:13:05.275Z,6.80
2022-12-25T09:15:32.531Z,7.65
2022-12-25T09:17:59.230Z,7.32
2022-12-25T09:20:25.957Z,5.78
2022-12-25T09:22:52.588Z,7.40
2022-12-25T09:25:19.270Z,8.20
2022-12-25T09:27:45.998Z,6.65
2022-12-25T09:30:12.999Z,5.57
2022-12-25T09:32:40.412Z,6.20
2022-12-25T09:35:08.525Z,4.03
2022-12-25T09:37:35.721Z,4.90
2022-12-25T09:40:02.487Z,7.10
2022-12-25T09:42:37.115Z,6.60
2022-12-25T09:45:11.520Z,6.22
2022-12-25T09:47:41.118Z,9.50
2022-12-25T09:50:13.514Z,8.75
2022-12-25T09:52:49.509Z,8.48
2022-12-25T09:55:21.240Z,7.70
2022-12-25T09:58:08.838Z,9.07
2022-12-25T10:00:42.299Z,9.52
2022-12-25T10:03:12.101Z,7.35
2022-12-25T10:05:55.851Z,9.05
2022-12-25T10:08:47.897Z,6.93
2022-12-25T10:11:26.246Z,6.40
2022-12-25T10:14:08.069Z,6.93
2022-12-25T10:16:58.011Z,10.57
2022-12-25T10:19:43.183Z,11.52
2022-12-25T10:22:20.062Z,11.38
2022-12-25T10:24:52.979Z,10.70
2022-12-25T10:27:30.167Z,10.07
2022-12-25T10:29:56.872Z,12.40
2022-12-25T10:32:23.517Z,12.40
2022-12-25T10:34:50.776Z,12.05
2022-12-25T10:37:17.762Z,13.93
2022-12-25T10:39:46.809Z,13.90
2022-12-25T10:42:22.459Z,12.52
2022-12-25T10:45:04.290Z,11.73
2022-12-25T10:47:33.977Z,10.25
2022-12-25T10:50:07.826Z,13.55
2022-12-25T10:52:34.640Z,11.00
2022-12-25T10:55:11.525Z,14.27
2022-12-25T10:57:45.876Z,12.15
2022-12-25T11:00:23.567Z,15.45
2022-12-25T11:02:51.143Z,13.50
2022-12-25T11:05:32.997Z,13.95
2022-12-25T11:08:01.578Z,10.90
2022-12-25T11:10:32.575Z,7.00
2022-12-25T11:13:01.051Z,11.07
2022-12-25T11:16:10.849Z,8.80
2022-12-25T11:18:52.391Z,10.52
2022-12-25T11:21:29.158Z,9.45
2022-12-25T11:24:20.040Z,8.65
2022-12-25T11:26:55.877Z,8.48
2022-12-25T11:29:36.576Z,7.97
2022-12-25T11:32:05.281Z,8.82
2022-12-25T11:34:38.453Z,9.30
2022-12-25T11:37:12.526Z,8.98
2022-12-25T11:39:41.156Z,10.70
2022-12-25T11:42:13.588Z,8.23
2022-12-25T11:44:52.012Z,11.32
2022-12-25T11:47:21.862Z,8.15
2022-12-25T11:50:00.248Z,10.48
2022-12-25T11:52:33.927Z,10.43
2022-12-25T11:55:36.883Z,11.30
2022-12-25T11:58:14.203Z,12.73
2022-12-25T12:00:43.076Z,7.55
2022-12-25T12:03:19.220Z,11.00
2022-12-25T12:05:55.522Z,9.45
2022-12-25T12:08:22.177Z,13.25
2022-12-25T12:11:22.221Z,12.32
2022-12-25T12:13:57.511Z,10.93
2022-12-25T12:16:24.254Z,11.68
2022-12-25T12:18:51.067Z,13.75
2022-12-25T12:21:17.733Z,10.52
2022-12-25T12:24:06.146Z,11.32
2022-12-25T12:26:38.143Z,9.05
2022-12-25T12:29:07.144Z,11.48
2022-12-25T12:31:46.828Z,13.20
2022-12-25T12:34:32.585Z,9.75
2022-12-25T12:37:11.421Z,10.60
2022-12-25T12:39:40.237Z,10.85
2022-12-25T12:42:18.824Z,8.30
2022-12-25T12:47:29.469Z,7.32
2022-12-25T12:50:00.470Z,7.88
2022-12-25T12:52:32.927Z,10.73
2022-12-25T12:55:13.101Z,8.63
2022-12-25T12:57:40.654Z,9.85
2022-12-25T13:00:19.568Z,9.25
2022-12-25T13:03:40.495Z,10.23
2022-12-25T13:06:24.993Z,7.18
2022-12-25T13:09:13.355Z,9.23
2022-12-25T13:11:41.643Z,10.13
2022-12-25T13:14:17.214Z,9.50
2022-12-25T13:16:46.651Z,9.85
2022-12-25T13:19:21.975Z,11.55
2022-12-25T13:22:00.469Z,11.25
2022-12-25T13:24:30.119Z,8.55
2022-12-25T13:26:56.976Z,10.95
2022-12-25T13:29:30.989Z,7.60
2022-12-25T13:31:59.627Z,9.80
2022-12-25T13:34:42.078Z,9.43
2022-12-25T13:37:17.523Z,9.05
2022-12-25T13:40:06.473Z,11.90
2022-12-25T13:42:39.990Z,9.43
2022-12-25T13:45:28.069Z,9.98
2022-12-25T13:47:55.752Z,12.23
2022-12-25T13:50:31.926Z,8.00
2022-12-25T13:53:11.223Z,9.75
2022-12-25T13:55:38.216Z,8.65
2022-12-25T13:58:06.924Z,8.98
2022-12-25T14:00:38.050Z,8.65
2022-12-25T14:03:07.578Z,10.77
2022-12-25T14:05:42.856Z,7.90
2022-12-25T14:08:27.583Z,8.13
2022-12-25T14:10:55.614Z,7.95
2022-12-25T14:13:27.213Z,7.95
2022-12-25T14:15:56.607Z,7.82
2022-12-25T14:18:25.024Z,7.75
2022-12-25T14:21:15.376Z,6.88
2022-12-25T14:23:44.576Z,8.23
2022-12-25T14:26:40.789Z,7.78
2022-12-25T14:29:17.249Z,6.93
2022-12-25T14:31:47.036Z,9.15
2022-12-25T14:34:21.604Z,6.93
2022-12-25T14:36:48.802Z,8.50
2022-12-25T14:39:41.655Z,8.57
2022-12-25T14:42:20.326Z,7.70
2022-12-25T14:47:50.966Z,8.27
2022-12-25T14:50:38.726Z,7.97
2022-12-25T14:53:16.690Z,7.72
2022-12-25T14:55:48.321Z,10.57
2022-12-25T14:58:27.318Z,9.77
2022-12-25T15:00:57.034Z,8.73
2022-12-25T15:03:29.895Z,8.40
2022-12-25T15:06:02.125Z,8.30
2022-12-25T15:08:30.219Z,7.28
2022-12-25T15:11:01.043Z,8.23
2022-12-25T15:13:30.336Z,8.00
2022-12-25T15:16:12.642Z,7.90
2022-12-25T15:18:44.794Z,7.97
2022-12-25T15:21:26.491Z,7.95
2022-12-25T15:23:54.631Z,7.40
2022-12-25T15:26:21.783Z,8.10
2022-12-25T15:28:49.041Z,7.75
2022-12-25T15:31:31.055Z,6.70
2022-12-25T15:34:00.456Z,8.95
2022-12-25T15:36:27.606Z,8.27
2022-12-25T15:38:54.813Z,7.30
2022-12-25T15:41:50.277Z,7.70
2022-12-25T15:44:17.177Z,9.35
2022-12-25T15:46:44.152Z,7.47
2022-12-25T15:49:11.425Z,6.68
2022-12-25T15:51:38.611Z,7.25
2022-12-25T15:54:05.411Z,7.22
2022-12-25T15:56:45.594Z,7.72
2022-12-25T15:59:14.450Z,7.05
2022-12-25T16:01:44.769Z,5.80
2022-12-25T16:04:11.647Z,7.22
2022-12-25T16:06:38.619Z,9.65
2022-12-25T16:09:05.632Z,7.63
2022-12-25T16:11:32.349Z,7.72
2022-12-25T16:13:59.005Z,7.97
2022-12-25T16:16:25.915Z,6.88
2022-12-25T16:18:52.647Z,7.03
2022-12-25T16:21:21.121Z,7.20
2022-12-25T16:23:48.167Z,6.82
2022-12-25T16:26:14.876Z,8.88
2022-12-25T16:28:41.595Z,11.15
2022-12-25T16:31:08.339Z,10.48
2022-12-25T16:33:34.964Z,11.02
2022-12-25T16:36:01.607Z,8.70
2022-12-25T16:38:28.199Z,10.73
2022-12-25T16:40:57.431Z,10.55
2022-12-25T16:43:24.590Z,8.57
2022-12-25T16:45:51.588Z,10.82
2022-12-25T16:48:18.271Z,9.48
2022-12-25T16:50:45.227Z,12.95
2022-12-25T16:53:12.725Z,12.55
2022-12-25T16:55:39.379Z,14.55
2022-12-25T16:58:06.669Z,17.02
2022-12-25T17:00:33.387Z,14.10
2022-12-25T17:03:00.924Z,12.95
2022-12-25T17:05:27.848Z,9.23
2022-12-25T17:07:54.464Z,10.43
2022-12-25T17:10:21.443Z,14.80
2022-12-25T17:12:48.298Z,11.13
2022-12-25T17:15:14.992Z,10.65
2022-12-25T17:17:41.812Z,9.88
2022-12-25T17:20:08.816Z,10.30
2022-12-25T17:22:35.515Z,9.48
2022-12-25T17:25:02.313Z,9.50
2022-12-25T17:27:28.966Z,8.57
2022-12-25T17:29:55.642Z,9.38
2022-12-25T17:32:22.442Z,9.80
2022-12-25T17:34:49.070Z,9.50
2022-12-25T17:37:15.720Z,8.68
2022-12-25T17:39:42.360Z,10.73
2022-12-25T17:42:09.015Z,8.95
2022-12-25T17:44:35.667Z,8.48
2022-12-25T17:47:02.385Z,8.98
2022-12-25T17:49:29.133Z,9.20
2022-12-25T17:51:55.831Z,9.15
2022-12-25T17:54:22.448Z,8.63
2022-12-25T17:56:49.466Z,8.27
2022-12-25T17:59:18.816Z,10.30
2022-12-25T18:01:47.072Z,8.55
2022-12-25T18:04:13.950Z,9.02
2022-12-25T18:06:40.653Z,10.93
2022-12-25T18:09:07.351Z,8.77
2022-12-25T18:11:34.132Z,10.13
2022-12-25T18:14:05.640Z,9.93
2022-12-25T18:16:35.152Z,8.57
2022-12-25T18:19:02.511Z,8.65
2022-12-25T18:21:29.818Z,11.63
2022-12-25T18:23:56.745Z,9.38
2022-12-25T18:26:23.843Z,9.15
2022-12-25T18:28:50.697Z,7.60
2022-12-25T18:31:20.849Z,8.18
2022-12-25T18:33:48.436Z,7.97
2022-12-25T18:36:17.458Z,9.40
2022-12-25T18:38:44.082Z,8.98
2022-12-25T18:41:10.946Z,8.68
2022-12-25T18:43:53.959Z,8.57
2022-12-25T18:46:26.678Z,8.85
2022-12-25T18:48:55.634Z,8.27
2022-12-25T18:51:22.717Z,8.85
2022-12-25T18:53:49.372Z,8.57
2022-12-25T18:56:17.854Z,8.82
2022-12-25T18:58:46.180Z,9.70
2022-12-25T19:01:18.720Z,8.60
2022-12-25T19:03:46.263Z,9.35
2022-12-25T19:06:23.820Z,8.43
2022-12-25T19:08:51.221Z,9.70
2022-12-25T19:11:18.260Z,8.70
2022-12-25T19:13:45.683Z,8.57
2022-12-25T19:16:12.738Z,9.40
2022-12-25T19:18:43.060Z,8.63
2022-12-25T19:21:10.166Z,10.23
2022-12-25T19:23:38.066Z,7.05
2022-12-25T19:26:05.991Z,9.27
2022-12-25T19:28:32.709Z,8.27
2022-12-25T19:31:00.580Z,7.82
2022-12-25T19:33:27.780Z,7.32
2022-12-25T19:35:58.637Z,8.65
2022-12-25T19:38:25.250Z,7.47
2022-12-25T19:41:01.166Z,8.63
2022-12-25T19:43:33.066Z,7.30
2022-12-25T19:46:00.317Z,8.48
2022-12-25T19:48:27.673Z,8.73
2022-12-25T19:50:54.601Z,9.48
2022-12-25T19:53:23.768Z,7.97
2022-12-25T19:55:55.554Z,7.28
2022-12-25T19:58:23.679Z,7.07
2022-12-25T20:01:06.053Z,8.00
2022-12-25T20:03:38.824Z,8.40
2022-12-25T20:06:11.203Z,7.72
2022-12-25T20:08:37.815Z,7.35
2022-12-25T20:11:04.438Z,7.32
2022-12-25T20:13:31.118Z,5.60
2022-12-25T20:16:01.528Z,7.63
2022-12-25T20:18:29.074Z,7.88
2022-12-25T20:21:07.534Z,8.00
2022-12-25T20:23:34.171Z,6.40
2022-12-25T20:26:04.297Z,7.03
2022-12-25T20:28:32.620Z,6.85
2022-12-25T20:30:59.329Z,8.10
2022-12-25T20:33:25.915Z,6.50
2022-12-25T20:35:52.680Z,6.93
2022-12-25T20:38:19.288Z,5.85
2022-12-25T20:41:24.324Z,7.53
2022-12-25T20:43:32.932Z,7.93
2022-12-25T20:45:59.791Z,7.35
2022-12-25T20:48:26.524Z,8.63
2022-12-25T20:50:53.212Z,7.28
2022-12-25T20:53:20.485Z,6.57
2022-12-25T20:55:49.573Z,7.45
2022-12-25T20:58:17.330Z,7.50
2022-12-25T21:00:45.221Z,6.75
2022-12-25T21:03:12.221Z,6.68
2022-12-25T21:05:49.805Z,6.60
2022-12-25T21:08:22.411Z,6.57
2022-12-25T21:13:20.749Z,6.40
2022-12-25T21:15:48.959Z,7.82
2022-12-25T21:18:20.905Z,8.18
2022-12-25T21:20:51.466Z,7.13
2022-12-25T21:23:18.982Z,8.70
2022-12-25T21:25:47.035Z,8.35
2022-12-25T21:28:14.015Z,7.32
2022-12-25T21:30:40.820Z,7.97
2022-12-25T21:33:26.265Z,6.65
2022-12-25T21:35:52.930Z,6.88
2022-12-25T21:38:19.546Z,6.78
2022-12-25T21:40:46.150Z,7.88
2022-12-25T21:43:14.398Z,6.68
2022-12-25T21:45:41.141Z,8.10
2022-12-25T21:48:08.089Z,7.57
2022-12-25T21:50:53.587Z,7.07
2022-12-25T21:53:20.831Z,5.85
2022-12-25T21:56:01.381Z,7.78
2022-12-25T21:58:28.479Z,7.45
2022-12-25T22:00:55.455Z,6.32
2022-12-25T22:03:23.709Z,8.20
2022-12-25T22:06:09.237Z,6.20
2022-12-25T22:08:35.885Z,8.25
2022-12-25T22:11:04.070Z,6.20
2022-12-25T22:13:49.607Z,6.90
2022-12-25T22:16:34.827Z,6.80
2022-12-25T22:19:20.422Z,6.40
2022-12-25T22:21:47.000Z,5.40
2022-12-25T22:24:13.632Z,6.57
2022-12-25T22:26:40.259Z,6.50
2022-12-25T22:29:07.047Z,4.28
2022-12-25T22:31:33.718Z,5.95
2022-12-25T22:34:00.422Z,6.82
2022-12-25T22:36:27.054Z,6.78
2022-12-25T22:38:53.731Z,6.82
2022-12-25T22:41:20.339Z,7.03
2022-12-25T22:44:17.167Z,5.35
2022-12-25T22:46:33.553Z,6.65
2022-12-25T22:49:00.212Z,4.95
2022-12-25T22:51:26.784Z,6.25
2022-12-25T22:53:54.813Z,5.78
2022-12-25T22:56:24.143Z,5.68
2022-12-25T22:58:50.769Z,6.32
2022-12-25T23:01:17.409Z,5.00
2022-12-25T23:03:44.107Z,6.25
2022-12-25T23:06:10.971Z,6.38
2022-12-25T23:08:37.607Z,4.40
2022-12-25T23:11:05.197Z,5.75
2022-12-25T23:13:50.487Z,3.70
2022-12-25T23:16:17.770Z,5.18
2022-12-25T23:19:04.323Z,2.20
2022-12-25T23:21:49.791Z,6.22
2022-12-25T23:24:35.177Z,5.05
2022-12-25T23:27:02.031Z,5.82
2022-12-25T23:29:37.569Z,5.45
2022-12-25T23:32:13.220Z,5.50
2022-12-25T23:34:43.047Z,6.00
2022-12-25T23:37:10.353Z,5.03
2022-12-25T23:39:37.571Z,4.55
2022-12-25T23:42:04.441Z,5.35
2022-12-25T23:44:31.115Z,5.38
2022-12-25T23:46:58.207Z,4.68
2022-12-25T23:49:25.620Z,4.18
2022-12-25T23:51:52.839Z,4.20
2022-12-25T23:54:22.905Z,5.00
2022-12-25T23:56:49.753Z,5.05
2022-12-25T23:59:16.823Z,3.88
